KRKP

Aransas Co Airport

Rockport, Texas, USA
METAR KRKP 191753Z AUTO 11008KT 10SM CLR 31/23 A2995 RMK AO2 SLP143 T03060233 10311 20250 50001
Observed Flight Rules
Sep-19 @ 17:53 UTC (54 minutes ago) Visual Flight Rules
Wind Visibility Clouds
110° at 8 knots 10 miles
  • Clear skies
Temperatures Readings
Current 31°C / 88°F
Dewpoint 23°C / 73°F
Humidity 62%
Altimeter 29.95" Hg
Pressure 1014.3 hPa
Elevation 6
METAR KRKP 191753Z AUTO 11008KT 10SM CLR 31/23 A2995 RMK AO2 SLP143 T03060233 10311 20250 50001
Observed Flight Rules
Sep-19 @ 17:53 UTC
(54 minutes ago)
VFR
Wind Visibility
110° at 8 knots 10 miles
Clouds
  • Clear skies
Temperature Dewpoint
31°C / 88°F 23°C / 73°F
Humidity Altimeter Pressure
62% 29.95" Hg 1014.3 hPa